Time;durP1;ratioP1;P1;durP2;ratioP2;P2;SDS_P1;SDS_P2;PMS_P1;PMS_P2;Temp;Humidity;BMP_temperature;BMP_pressure;BME280_temperature;BME280_humidity;BME280_pressure;Samples;Min_cycle;Max_cycle;Signal;HPM_P1;HPM_P2
2023/01/26 00:01:22;;;;;;;107.97;30.58;;;;;;;-2.43;100.00;102447.97;5036323;28;20128;-87
2023/01/26 00:03:48;;;;;;;106.20;29.90;;;;;;;-2.37;100.00;102450.03;5037764;28;20103;-88
2023/01/26 00:06:17;;;;;;;100.37;28.90;;;;;;;-2.34;100.00;102455.03;5035636;28;20057;-88
2023/01/26 00:08:47;;;;;;;105.88;28.92;;;;;;;-2.36;100.00;102459.59;5036787;28;20018;-88
2023/01/26 00:11:16;;;;;;;125.15;35.90;;;;;;;-2.39;100.00;102441.50;5035807;28;20329;-88
2023/01/26 00:13:41;;;;;;;105.30;30.40;;;;;;;-2.40;100.00;102433.72;5017531;28;20045;-87
2023/01/26 00:16:12;;;;;;;102.37;28.97;;;;;;;-2.40;100.00;102429.34;5028144;28;20025;-87
2023/01/26 00:18:39;;;;;;;114.43;31.13;;;;;;;-2.41;100.00;102414.53;5036969;28;20041;-87
2023/01/26 00:21:06;;;;;;;105.35;30.55;;;;;;;-2.52;100.00;102404.13;5036628;28;20033;-88
2023/01/26 00:23:33;;;;;;;100.03;28.95;;;;;;;-2.36;100.00;102433.34;5035878;28;20037;-87
2023/01/26 00:25:59;;;;;;;105.80;30.03;;;;;;;-2.36;100.00;102425.47;5018063;28;20033;-88
2023/01/26 00:28:24;;;;;;;102.93;27.43;;;;;;;-2.31;100.00;102433.78;5021095;28;20264;-87
2023/01/26 00:30:50;;;;;;;110.15;29.15;;;;;;;-2.35;100.00;102423.69;5020445;28;20066;-88
2023/01/26 00:33:15;;;;;;;100.37;27.30;;;;;;;-2.31;100.00;102431.16;4998341;28;20049;-87
2023/01/26 00:35:43;;;;;;;96.77;28.07;;;;;;;-2.31;100.00;102425.91;5035726;28;20037;-87
2023/01/26 00:38:12;;;;;;;110.00;30.40;;;;;;;-2.41;100.00;102401.41;5052107;28;20033;-87
2023/01/26 00:40:39;;;;;;;103.32;28.38;;;;;;;-2.30;100.00;102419.69;5024243;28;20018;-88
2023/01/26 00:43:04;;;;;;;98.60;28.35;;;;;;;-2.32;100.00;102407.66;5026129;28;20044;-87
2023/01/26 00:45:30;;;;;;;101.10;29.03;;;;;;;-2.26;100.00;102414.97;5032644;28;20037;-88
2023/01/26 00:47:55;;;;;;;105.15;31.45;;;;;;;-2.27;100.00;102408.06;5032787;28;20022;-88
2023/01/26 00:50:21;;;;;;;103.17;29.30;;;;;;;-2.26;100.00;102396.59;5033443;28;20017;-88
2023/01/26 00:52:46;;;;;;;90.20;26.80;;;;;;;-2.22;100.00;102402.44;5032731;28;20036;-87
2023/01/26 00:55:11;;;;;;;98.40;28.53;;;;;;;-2.28;100.00;102390.66;5032578;28;20044;-87
2023/01/26 00:57:37;;;;;;;91.83;26.77;;;;;;;-2.21;100.00;102407.53;5032449;28;20435;-88
2023/01/26 01:00:05;;;;;;;94.23;29.43;;;;;;;-2.21;100.00;102391.78;5033081;28;20473;-87
2023/01/26 01:02:30;;;;;;;93.77;26.23;;;;;;;-2.50;100.00;102345.28;5015424;28;20339;-87
2023/01/26 01:04:55;;;;;;;108.25;29.83;;;;;;;-2.26;100.00;102383.47;5033079;28;20049;-88
2023/01/26 01:07:21;;;;;;;94.67;26.70;;;;;;;-2.28;100.00;102378.38;5031260;28;20435;-88
2023/01/26 01:09:47;;;;;;;99.43;30.03;;;;;;;-2.27;100.00;102371.31;5033233;28;20017;-88
2023/01/26 01:12:12;;;;;;;104.30;28.60;;;;;;;-2.19;100.00;102383.78;5031541;28;20037;-88
2023/01/26 01:14:38;;;;;;;97.53;27.73;;;;;;;-2.21;100.00;102377.84;5015310;28;20021;-88
2023/01/26 01:17:03;;;;;;;105.10;30.80;;;;;;;-2.19;100.00;102389.84;5031174;28;20025;-87
2023/01/26 01:19:29;;;;;;;89.83;27.17;;;;;;;-2.33;100.00;102371.84;5032293;28;20044;-88
2023/01/26 01:21:54;;;;;;;90.75;25.58;;;;;;;-2.28;100.00;102377.50;5030985;28;20048;-88
2023/01/26 01:24:19;;;;;;;97.60;26.57;;;;;;;-2.25;100.00;102381.69;5032873;28;20100;-88
2023/01/26 01:26:46;;;;;;;100.90;29.70;;;;;;;-2.32;100.00;102366.47;5032969;28;20052;-88
2023/01/26 01:29:13;;;;;;;82.65;24.88;;;;;;;-2.24;100.00;102378.91;5032050;28;20025;-88
2023/01/26 01:31:40;;;;;;;91.80;26.57;;;;;;;-2.32;100.00;102363.84;5015054;28;20031;-87
2023/01/26 01:34:05;;;;;;;91.93;27.23;;;;;;;-2.27;100.00;102371.31;5032024;28;20311;-88
2023/01/26 01:36:30;;;;;;;92.00;27.58;;;;;;;-2.45;100.00;102352.75;5029258;28;20074;-88
2023/01/26 01:38:57;;;;;;;98.10;28.90;;;;;;;-2.30;100.00;102380.28;5013730;28;20025;-88
2023/01/26 01:41:22;;;;;;;99.38;28.00;;;;;;;-2.36;100.00;102367.69;5013037;28;20033;-88
2023/01/26 01:43:49;;;;;;;88.43;26.80;;;;;;;-2.30;100.00;102375.03;5031793;28;20063;-87
2023/01/26 01:46:34;;;;;;;93.60;26.15;;;;;;;-2.26;100.00;102377.41;5036742;28;20037;-87
2023/01/26 01:49:16;;;;;;;103.60;30.25;;;;;;;-2.34;100.00;102357.88;5048011;28;20069;-87
2023/01/26 01:52:03;;;;;;;86.77;26.30;;;;;;;-2.23;100.00;102380.59;5039330;28;20408;-88
2023/01/26 01:54:33;;;;;;;83.23;24.20;;;;;;;-2.26;100.00;102380.03;5056075;28;20306;-88
2023/01/26 01:57:05;;;;;;;88.20;26.35;;;;;;;-2.26;100.00;102372.97;5045928;28;20038;-88
2023/01/26 01:59:31;;;;;;;85.57;24.92;;;;;;;-2.19;100.00;102379.34;5034314;28;20014;-88
2023/01/26 02:01:57;;;;;;;79.60;23.88;;;;;;;-2.18;100.00;102377.53;5048019;28;20020;-88
2023/01/26 02:04:23;;;;;;;76.90;22.70;;;;;;;-2.30;100.00;102355.84;5047136;28;20021;-87
2023/01/26 02:06:56;;;;;;;79.93;23.93;;;;;;;-2.08;100.00;102386.28;5033736;28;20083;-88
2023/01/26 02:12:22;;;;;;;81.53;25.17;;;;;;;-2.11;100.00;102370.78;5044695;28;20124;-87
2023/01/26 02:14:50;;;;;;;76.80;24.60;;;;;;;-2.07;100.00;102368.72;5012581;28;20636;-87
2023/01/26 02:17:16;;;;;;;84.38;25.02;;;;;;;-2.12;100.00;102361.25;5033755;28;20037;-88
2023/01/26 02:20:16;;;;;;;78.60;25.50;;;;;;;-2.03;100.00;102368.34;5033325;28;20373;-87
2023/01/26 02:22:59;;;;;;;91.05;26.70;;;;;;;-2.04;100.00;102358.78;5016667;28;20046;-87
2023/01/26 02:25:37;;;;;;;82.03;24.80;;;;;;;-2.07;100.00;102351.19;5032588;28;20543;-88
2023/01/26 02:28:04;;;;;;;78.57;24.83;;;;;;;-2.07;100.00;102350.31;5032040;28;20310;-86
2023/01/26 02:30:30;;;;;;;79.32;24.48;;;;;;;-2.03;100.00;102347.31;5031596;28;20037;-87
2023/01/26 02:32:55;;;;;;;86.28;24.60;;;;;;;-2.07;100.00;102345.91;5033018;28;20025;-87
2023/01/26 02:35:21;;;;;;;76.93;23.87;;;;;;;-1.99;100.00;102353.94;5028446;28;20037;-87
2023/01/26 02:37:47;;;;;;;77.70;25.08;;;;;;;-2.02;100.00;102354.22;5028694;28;20037;-86
2023/01/26 02:40:27;;;;;;;77.77;23.93;;;;;;;-1.95;100.00;102353.66;5030564;28;20029;-85
2023/01/26 02:42:54;;;;;;;76.25;23.90;;;;;;;-1.96;100.00;102346.75;5029800;28;20121;-85
2023/01/26 02:45:20;;;;;;;76.30;22.95;;;;;;;-1.92;100.00;102348.16;5046717;22;20455;-86
2023/01/26 02:51:17;;;;;;;68.47;21.77;;;;;;;-2.11;100.00;102315.63;5022534;28;20043;-84
2023/01/26 02:53:43;;;;;;;72.83;23.17;;;;;;;-1.90;100.00;102333.06;5033285;28;20295;-85
2023/01/26 02:56:08;;;;;;;76.00;23.73;;;;;;;-1.92;100.00;102327.97;5048249;28;20080;-85
2023/01/26 02:58:35;;;;;;;66.17;21.60;;;;;;;-1.90;100.00;102333.88;5047784;28;20107;-84
2023/01/26 03:01:00;;;;;;;74.63;24.20;;;;;;;-1.91;100.00;102339.28;5044747;28;20009;-85
2023/01/26 03:03:43;;;;;;;77.90;24.83;;;;;;;-1.93;100.00;102335.97;5027685;28;20036;-84
2023/01/26 03:06:12;;;;;;;74.70;24.00;;;;;;;-1.93;100.00;102339.44;5050601;28;20028;-84
2023/01/26 03:08:38;;;;;;;73.53;23.00;;;;;;;-1.92;100.00;102337.63;5044526;28;20488;-84
2023/01/26 03:11:05;;;;;;;85.47;25.98;;;;;;;-1.91;100.00;102339.28;5049857;28;20047;-84
2023/01/26 03:13:31;;;;;;;75.93;23.07;;;;;;;-1.94;100.00;102329.91;5050755;28;20031;-84
2023/01/26 03:16:01;;;;;;;83.83;24.50;;;;;;;-1.96;100.00;102330.97;5050293;28;20291;-86
2023/01/26 03:29:26;;;;;;;77.03;21.60;;;;;;;-1.81;100.00;102331.41;5049570;28;20286;-84
2023/01/26 03:31:52;;;;;;;73.45;23.80;;;;;;;-1.81;100.00;102326.97;5048801;28;20024;-84
2023/01/26 03:34:17;;;;;;;78.93;24.25;;;;;;;-1.85;100.00;102317.72;5065789;28;20055;-84
2023/01/26 03:36:43;;;;;;;71.20;22.90;;;;;;;-1.95;100.00;102306.38;5038623;28;20029;-85
2023/01/26 03:41:06;;;;;;;72.43;22.93;;;;;;;-1.82;100.00;102327.94;5049289;28;20078;-84
2023/01/26 03:58:21;;;;;;;63.58;20.08;;;;;;;-1.66;100.00;102323.94;5033629;28;20044;-84
2023/01/26 04:00:48;;;;;;;63.03;20.80;;;;;;;-1.66;100.00;102319.50;5049505;28;20032;-85
2023/01/26 04:08:43;;;;;;;60.95;18.92;;;;;;;-1.64;100.00;102308.88;5051507;28;20098;-85
2023/01/26 04:11:09;;;;;;;56.50;17.38;;;;;;;-1.65;100.00;102300.13;5056276;28;20036;-85
2023/01/26 04:21:48;;;;;;;53.50;17.30;;;;;;;-1.58;100.00;102314.41;5076025;28;20075;-85
2023/01/26 04:24:13;;;;;;;51.30;17.33;;;;;;;-1.54;100.00;102314.94;5084684;28;20278;-85
2023/01/26 04:26:40;;;;;;;48.07;17.13;;;;;;;-1.57;100.00;102307.31;5048913;28;20518;-84
2023/01/26 04:29:11;;;;;;;56.47;19.25;;;;;;;-1.52;100.00;102313.00;5064808;28;20071;-86
2023/01/26 04:31:38;;;;;;;53.60;17.87;;;;;;;-1.53;100.00;102316.59;5049519;28;20033;-86
2023/01/26 04:34:05;;;;;;;54.50;17.70;;;;;;;-1.53;100.00;102319.22;5038884;28;20303;-85
2023/01/26 04:36:31;;;;;;;51.53;17.13;;;;;;;-1.59;100.00;102307.47;5052302;28;20090;-86
2023/01/26 04:38:57;;;;;;;52.65;17.20;;;;;;;-1.63;100.00;102297.34;5055534;28;20025;-85
2023/01/26 04:41:23;;;;;;;53.65;18.25;;;;;;;-1.54;100.00;102307.84;5063785;28;20035;-86
2023/01/26 04:43:49;;;;;;;49.57;17.50;;;;;;;-1.52;100.00;102318.25;5061627;28;20020;-86
2023/01/26 04:46:15;;;;;;;50.08;17.17;;;;;;;-1.61;100.00;102293.63;5053805;28;20029;-85
2023/01/26 04:48:40;;;;;;;48.95;17.38;;;;;;;-1.59;100.00;102298.75;5054052;28;20044;-84
2023/01/26 04:51:10;;;;;;;50.53;17.17;;;;;;;-1.66;100.00;102280.06;5056444;28;20116;-84
2023/01/26 04:53:36;;;;;;;48.35;16.55;;;;;;;-1.58;100.00;102298.63;5052230;28;20028;-84
2023/01/26 04:56:01;;;;;;;46.00;16.43;;;;;;;-1.56;100.00;102299.31;5048554;28;20733;-84
2023/01/26 05:01:50;;;;;;;48.25;15.73;;;;;;;-1.54;100.00;102304.41;5348933;22;20250;-84
2023/01/26 05:04:17;;;;;;;45.90;15.13;;;;;;;-1.58;100.00;102292.50;5001308;28;20038;-84
2023/01/26 05:06:46;;;;;;;51.97;16.88;;;;;;;-1.61;100.00;102285.75;5006094;28;20022;-84
2023/01/26 05:18:43;;;;;;;41.93;14.30;;;;;;;-1.50;100.00;102297.91;5480324;22;20839;-86
2023/01/26 05:21:10;;;;;;;40.40;13.18;;;;;;;-1.48;100.00;102292.50;5072132;28;20023;-86
2023/01/26 05:23:35;;;;;;;43.83;14.00;;;;;;;-1.47;100.00;102302.91;5071993;28;20036;-85
2023/01/26 05:26:02;;;;;;;40.07;13.93;;;;;;;-1.46;100.00;102309.78;5045795;28;20136;-86
2023/01/26 05:28:28;;;;;;;40.83;13.07;;;;;;;-1.52;100.00;102302.47;5082336;28;20058;-85
2023/01/26 05:30:53;;;;;;;41.30;13.88;;;;;;;-1.46;100.00;102309.78;5075113;28;20028;-86
2023/01/26 05:33:21;;;;;;;38.50;12.27;;;;;;;-1.45;100.00;102311.44;5054183;28;20090;-85
2023/01/26 05:35:50;;;;;;;35.60;12.60;;;;;;;-1.45;100.00;102308.81;5067992;28;20025;-86
2023/01/26 05:38:16;;;;;;;38.03;12.10;;;;;;;-1.56;100.00;102301.09;5061342;28;20051;-86
2023/01/26 05:40:42;;;;;;;38.58;12.48;;;;;;;-1.48;100.00;102314.38;5070434;28;20024;-86
2023/01/26 05:43:07;;;;;;;39.80;12.80;;;;;;;-1.48;100.00;102303.88;5070787;28;20032;-86
2023/01/26 05:45:33;;;;;;;38.40;11.60;;;;;;;-1.47;100.00;102308.16;5069324;28;20031;-87
2023/01/26 05:48:00;;;;;;;41.40;13.10;;;;;;;-1.43;100.00;102312.13;5052160;28;20028;-87
2023/01/26 05:50:34;;;;;;;43.40;13.57;;;;;;;-1.52;100.00;102294.59;5052563;28;20053;-87
2023/01/26 05:53:15;;;;;;;38.72;12.75;;;;;;;-1.53;100.00;102295.56;5033756;28;20082;-87
2023/01/26 05:55:42;;;;;;;40.88;12.35;;;;;;;-1.74;100.00;102262.38;5052854;28;20481;-87
2023/01/26 05:58:07;;;;;;;43.80;13.57;;;;;;;-1.53;100.00;102306.91;5066527;28;20028;-87
2023/01/26 06:00:32;;;;;;;41.35;13.02;;;;;;;-1.42;100.00;102320.88;5061577;28;20024;-86
2023/01/26 06:02:58;;;;;;;43.50;12.67;;;;;;;-1.57;100.00;102289.75;5071645;28;20025;-87
2023/01/26 06:05:23;;;;;;;42.60;12.13;;;;;;;-1.42;100.00;102310.34;5069511;28;20490;-87
2023/01/26 06:07:49;;;;;;;41.93;12.73;;;;;;;-1.41;100.00;102320.72;5071000;28;20091;-87
2023/01/26 06:10:14;;;;;;;51.47;13.33;;;;;;;-1.49;100.00;102312.72;5070321;28;20418;-86
2023/01/26 06:12:42;;;;;;;40.15;12.07;;;;;;;-1.41;100.00;102328.59;5051878;28;20033;-87
2023/01/26 06:22:48;;;;;;;44.80;12.65;;;;;;;-1.39;100.00;102331.13;5028668;28;20041;-87
2023/01/26 06:25:14;;;;;;;39.78;12.20;;;;;;;-1.42;100.00;102326.94;5031048;28;20025;-87
2023/01/26 06:27:41;;;;;;;37.33;11.53;;;;;;;-1.39;100.00;102331.94;5030991;28;20025;-86
2023/01/26 06:30:09;;;;;;;41.53;12.93;;;;;;;-1.45;100.00;102316.69;5032345;28;20033;-86
2023/01/26 06:32:36;;;;;;;39.33;12.48;;;;;;;-1.38;100.00;102327.50;5029487;28;20033;-86
2023/01/26 06:35:02;;;;;;;43.10;11.93;;;;;;;-1.36;100.00;102322.91;5045205;28;20031;-86
2023/01/26 06:37:32;;;;;;;43.80;12.70;;;;;;;-1.38;100.00;102330.97;5036129;28;20021;-86
2023/01/26 06:39:57;;;;;;;41.92;12.23;;;;;;;-1.42;100.00;102328.75;5038062;28;20014;-87
2023/01/26 06:42:23;;;;;;;43.77;12.40;;;;;;;-1.37;100.00;102332.63;5053589;28;20044;-87
2023/01/26 06:44:50;;;;;;;47.73;12.83;;;;;;;-1.50;100.00;102310.22;5049350;28;20377;-88
2023/01/26 06:47:15;;;;;;;38.25;11.60;;;;;;;-1.50;100.00;102315.47;5053722;28;20018;-86
2023/01/26 06:53:59;;;;;;;37.53;11.45;;;;;;;-1.37;100.00;102337.88;4976220;29;20045;-88
2023/01/26 06:56:27;;;;;;;37.83;11.27;;;;;;;-1.43;100.00;102327.91;4967320;28;20027;-85
2023/01/26 06:59:09;;;;;;;41.95;11.32;;;;;;;-1.64;100.00;102300.97;4949240;29;20130;-86
2023/01/26 07:04:52;;;;;;;43.95;12.52;;;;;;;-1.48;100.00;102322.28;4951821;29;20050;-88
2023/01/26 07:07:19;;;;;;;44.43;12.60;;;;;;;-1.33;100.00;102343.69;4950324;29;20067;-87
2023/01/26 07:09:45;;;;;;;46.22;12.98;;;;;;;-1.34;100.00;102338.56;4982478;28;20431;-87
2023/01/26 07:12:11;;;;;;;44.75;12.25;;;;;;;-1.37;100.00;102332.63;5029491;28;20031;-87
2023/01/26 07:14:37;;;;;;;44.17;12.50;;;;;;;-1.32;100.00;102345.34;5013811;28;20396;-88
2023/01/26 07:17:03;;;;;;;45.00;12.57;;;;;;;-1.32;100.00;102350.59;5030781;28;20033;-87
2023/01/26 07:19:30;;;;;;;50.80;13.43;;;;;;;-1.31;100.00;102351.44;5031225;28;20013;-87
2023/01/26 07:21:56;;;;;;;44.97;12.68;;;;;;;-1.39;100.00;102344.25;5031646;28;20042;-87
2023/01/26 07:24:22;;;;;;;50.08;12.50;;;;;;;-1.34;100.00;102357.81;5030200;28;20041;-88
2023/01/26 07:26:47;;;;;;;43.87;11.87;;;;;;;-1.38;100.00;102356.44;5030183;28;20492;-87
2023/01/26 07:29:15;;;;;;;50.25;12.13;;;;;;;-1.35;100.00;102347.44;5023493;28;20492;-87
2023/01/26 07:31:43;;;;;;;47.75;12.88;;;;;;;-1.32;100.00;102355.84;5032205;28;20026;-87
2023/01/26 07:34:08;;;;;;;45.63;12.37;;;;;;;-1.49;100.00;102322.38;5038398;28;20409;-87
2023/01/26 07:36:34;;;;;;;45.00;12.33;;;;;;;-1.41;100.00;102325.97;5032567;28;20303;-87
2023/01/26 07:39:03;;;;;;;43.08;12.25;;;;;;;-1.29;100.00;102365.28;5034517;28;20022;-86
2023/01/26 07:41:29;;;;;;;41.30;11.53;;;;;;;-1.37;100.00;102342.31;5035487;28;20025;-87
2023/01/26 07:43:57;;;;;;;47.33;11.77;;;;;;;-1.53;100.00;102313.97;5039090;28;20759;-88
2023/01/26 07:46:23;;;;;;;46.05;12.70;;;;;;;-1.32;100.00;102352.41;5036066;28;20032;-87
2023/01/26 07:48:49;;;;;;;43.43;12.37;;;;;;;-1.26;100.00;102360.56;5035987;28;20037;-88
2023/01/26 07:51:14;;;;;;;50.00;12.67;;;;;;;-1.25;100.00;102362.22;5032793;28;20300;-88
2023/01/26 07:53:42;;;;;;;49.07;12.47;;;;;;;-1.28;100.00;102348.53;5020808;28;20420;-87
2023/01/26 07:56:13;;;;;;;45.38;11.30;;;;;;;-1.23;100.00;102364.69;5031436;28;20036;-87
2023/01/26 07:58:40;;;;;;;51.08;13.05;;;;;;;-1.40;100.00;102348.69;5036457;28;20081;-89
2023/01/26 08:01:08;;;;;;;49.78;12.55;;;;;;;-1.21;100.00;102370.66;5032888;28;20396;-89
2023/01/26 08:03:34;;;;;;;51.80;11.67;;;;;;;-1.23;100.00;102375.22;5036981;28;20030;-89
2023/01/26 08:05:59;;;;;;;45.42;12.57;;;;;;;-1.18;100.00;102378.28;5034026;28;20028;-89
2023/01/26 08:08:25;;;;;;;43.10;11.63;;;;;;;-1.18;100.00;102370.38;5033533;28;20057;-87
2023/01/26 08:10:50;;;;;;;50.53;12.37;;;;;;;-1.16;100.00;102376.34;5045158;28;20029;-87
2023/01/26 08:13:16;;;;;;;47.27;12.10;;;;;;;-1.24;100.00;102363.03;5039998;28;20030;-87
2023/01/26 08:15:41;;;;;;;45.00;11.67;;;;;;;-1.16;100.00;102376.34;5017314;28;20030;-86
2023/01/26 08:18:06;;;;;;;47.47;12.30;;;;;;;-1.19;100.00;102381.88;5028944;28;20037;-87
2023/01/26 08:20:31;;;;;;;45.00;12.23;;;;;;;-1.14;100.00;102382.28;5040645;28;20056;-87
2023/01/26 08:22:57;;;;;;;49.33;12.30;;;;;;;-1.24;100.00;102368.31;5033753;28;20029;-87
2023/01/26 08:25:22;;;;;;;54.93;13.27;;;;;;;-1.18;100.00;102386.16;5034709;28;20984;-86
2023/01/26 08:27:47;;;;;;;53.77;13.63;;;;;;;-1.13;100.00;102383.09;5030834;28;20505;-87
2023/01/26 08:30:14;;;;;;;50.30;13.30;;;;;;;-1.14;100.00;102379.66;5033613;28;20033;-87
2023/01/26 08:32:40;;;;;;;52.65;13.32;;;;;;;-1.10;100.00;102396.81;5032191;28;20029;-86
2023/01/26 08:35:07;;;;;;;57.80;12.77;;;;;;;-1.10;100.00;102385.47;5028671;28;20942;-87
2023/01/26 08:37:32;;;;;;;54.03;13.20;;;;;;;-1.08;100.00;102392.22;5023583;28;22053;-88
2023/01/26 08:39:58;;;;;;;45.93;12.47;;;;;;;-1.04;100.00;102389.31;5034075;28;20299;-87
2023/01/26 08:48:14;;;;;;;50.13;12.35;;;;;;;-1.23;100.00;102365.56;5055106;28;20114;-87
2023/01/26 08:50:39;;;;;;;47.25;12.30;;;;;;;-1.16;100.00;102372.84;5054850;28;20101;-87
2023/01/26 08:53:04;;;;;;;46.17;12.63;;;;;;;-0.94;100.00;102408.56;5055363;28;20148;-87
2023/01/26 08:55:31;;;;;;;54.10;12.60;;;;;;;-0.99;100.00;102393.19;5055526;28;20071;-88
2023/01/26 08:57:56;;;;;;;48.88;12.38;;;;;;;-0.98;100.00;102391.38;5058838;28;20566;-87
2023/01/26 09:04:12;;;;;;;56.35;12.35;;;;;;;-0.80;100.00;102402.00;4976118;28;20474;-87
2023/01/26 09:06:38;;;;;;;59.28;14.45;;;;;;;-0.92;100.00;102385.56;5000683;28;20037;-87
2023/01/26 09:09:04;;;;;;;47.37;13.53;;;;;;;-0.71;100.00;102403.78;5051748;28;20029;-87
2023/01/26 09:11:30;;;;;;;51.67;12.98;;;;;;;-0.69;100.00;102399.22;5056006;28;20040;-88
2023/01/26 09:13:56;;;;;;;51.97;12.88;;;;;;;-0.60;100.00;102402.78;5056476;28;20095;-87
2023/01/26 09:16:22;;;;;;;64.27;14.37;;;;;;;-0.68;100.00;102390.34;5055858;28;20021;-87
2023/01/26 09:18:50;;;;;;;65.72;14.27;;;;;;;-0.54;100.00;102398.72;5053269;28;20052;-87
2023/01/26 09:21:15;;;;;;;59.60;13.98;;;;;;;-0.46;100.00;102399.66;5048605;28;20055;-87
2023/01/26 09:23:40;;;;;;;63.30;14.37;;;;;;;-0.49;100.00;102388.59;5056824;28;20029;-86
2023/01/26 09:26:05;;;;;;;71.90;14.13;;;;;;;-0.40;100.00;102395.59;5071232;28;20039;-85
2023/01/26 09:28:31;;;;;;;61.23;13.90;;;;;;;-0.28;100.00;102406.78;5068968;28;20028;-85
2023/01/26 09:30:56;;;;;;;61.10;14.20;;;;;;;-0.25;100.00;102405.66;5070037;28;20119;-86
2023/01/26 09:33:22;;;;;;;65.28;14.93;;;;;;;-0.23;100.00;102404.53;5055149;28;20033;-86
2023/01/26 09:35:48;;;;;;;62.73;14.50;;;;;;;-0.29;100.00;102399.84;5055433;28;20068;-86
2023/01/26 09:38:13;;;;;;;64.25;13.43;;;;;;;-0.29;100.00;102394.59;5052333;28;20040;-87
2023/01/26 09:40:57;;;;;;;58.47;14.73;;;;;;;-0.20;100.00;102419.22;5057577;28;20055;-87
2023/01/26 09:43:40;;;;;;;68.28;14.50;;;;;;;-0.20;100.00;102420.06;5077377;28;20024;-86
2023/01/26 09:46:59;;;;;;;64.72;14.20;;;;;;;-0.20;100.00;102425.34;5155196;22;20329;-87
2023/01/26 09:52:50;;;;;;;59.03;13.80;;;;;;;-0.23;100.00;102419.50;5050563;22;20304;-87
2023/01/26 09:55:19;;;;;;;76.57;14.23;;;;;;;-0.22;100.00;102406.22;5030191;28;20095;-88
2023/01/26 09:58:13;;;;;;;70.65;15.73;;;;;;;-0.08;100.00;102411.94;5026239;28;20493;-88
2023/01/26 10:00:53;;;;;;;60.72;14.35;;;;;;;-0.04;100.00;102416.78;5031549;28;20029;-87
2023/01/26 10:03:30;;;;;;;66.85;14.65;;;;;;;-0.12;100.00;102411.44;5030256;28;20576;-87
2023/01/26 10:06:15;;;;;;;65.55;14.25;;;;;;;-0.07;100.00;102417.06;5030352;28;20029;-86
2023/01/26 10:08:43;;;;;;;65.53;14.67;;;;;;;-0.04;100.00;102418.59;5008286;28;20029;-86
2023/01/26 10:11:37;;;;;;;62.93;14.37;;;;;;;0.03;100.00;102414.38;5028934;28;20303;-86
2023/01/26 10:14:14;;;;;;;71.53;15.60;;;;;;;0.04;100.00;102409.94;5030846;28;20469;-85
2023/01/26 10:16:44;;;;;;;58.65;13.85;;;;;;;0.09;100.00;102416.44;5030211;28;20599;-85
2023/01/26 10:19:16;;;;;;;60.60;14.38;;;;;;;0.09;100.00;102411.16;5027274;28;20021;-86
2023/01/26 10:21:46;;;;;;;61.60;14.18;;;;;;;0.18;100.00;102413.88;5029739;28;20026;-85
2023/01/26 10:24:16;;;;;;;70.93;15.65;;;;;;;0.22;100.00;102410.78;5030971;28;20025;-85
2023/01/26 10:26:41;;;;;;;75.30;14.43;;;;;;;0.23;100.00;102409.81;5031086;28;20029;-85
2023/01/26 10:29:15;;;;;;;70.37;14.63;;;;;;;0.29;100.00;102403.09;5021829;28;20296;-85
2023/01/26 10:31:43;;;;;;;82.00;16.85;;;;;;;0.37;100.00;102416.34;5031538;28;20037;-85
2023/01/26 10:34:37;;;;;;;82.38;17.15;;;;;;;0.44;100.00;102413.97;5030487;28;20029;-85
2023/01/26 10:37:14;;;;;;;86.32;16.10;;;;;;;0.49;100.00;102397.69;5026079;28;20037;-85
2023/01/26 10:40:08;;;;;;;81.43;16.67;;;;;;;0.56;100.00;102409.25;5028423;28;20095;-86
2023/01/26 10:42:36;;;;;;;76.87;15.50;;;;;;;0.63;100.00;102409.50;5027418;28;20322;-87
2023/01/26 10:45:30;;;;;;;73.95;17.10;;;;;;;0.64;100.00;102413.81;5032495;28;20037;-87
2023/01/26 10:48:23;;;;;;;91.30;18.15;;;;;;;0.71;100.00;102418.31;5024799;28;20404;-86
2023/01/26 10:50:49;;;;;;;90.40;16.85;;;;;;;0.67;100.00;102419.59;5014611;28;20041;-86
2023/01/26 10:53:22;;;;;;;92.95;18.05;;;;;;;0.62;100.00;102413.94;5011521;28;20056;-87
2023/01/26 10:56:03;;;;;;;99.72;17.35;;;;;;;0.70;100.00;102413.19;5023640;28;20053;-86
2023/01/26 10:58:51;;;;;;;90.63;17.27;;;;;;;0.83;100.00;102428.63;5028879;28;20112;-87
2023/01/26 11:01:17;;;;;;;89.43;17.50;;;;;;;0.85;100.00;102424.03;5029325;28;20120;-86
2023/01/26 11:03:57;;;;;;;84.03;17.80;;;;;;;0.86;100.00;102409.84;5030863;28;20276;-86
2023/01/26 11:06:27;;;;;;;84.88;17.02;;;;;;;0.91;100.00;102412.84;5030579;28;20555;-89
2023/01/26 11:08:52;;;;;;;83.72;18.05;;;;;;;1.07;100.00;102424.50;5030332;28;20029;-89
2023/01/26 11:11:26;;;;;;;96.63;19.03;;;;;;;1.08;100.00;102399.75;5031125;28;20033;-89
2023/01/26 11:14:18;;;;;;;100.88;18.65;;;;;;;1.29;100.00;102412.59;5041001;28;20089;-88
2023/01/26 11:16:55;;;;;;;102.40;19.55;;;;;;;1.44;100.00;102405.72;5025722;28;20615;-89
2023/01/26 11:19:55;;;;;;;94.50;19.63;;;;;;;1.50;100.00;102405.09;5036704;28;20029;-89
2023/01/26 11:22:29;;;;;;;95.78;18.50;;;;;;;1.66;100.00;102411.44;5051488;28;20025;-89
2023/01/26 11:25:03;;;;;;;101.68;18.77;;;;;;;1.76;100.00;102408.66;5048451;28;20028;-88
2023/01/26 11:27:38;;;;;;;88.83;18.03;;;;;;;1.92;100.00;102408.72;5032681;28;20109;-89
2023/01/26 11:30:37;;;;;;;94.03;17.33;;;;;;;2.00;100.00;102412.38;5024537;28;20034;-89
2023/01/26 11:33:15;;;;;;;99.88;16.83;;;;;;;2.01;100.00;102403.47;5011610;28;20060;-87
2023/01/26 11:36:01;;;;;;;94.25;17.05;;;;;;;2.07;100.00;102413.38;5025833;28;20060;-88
2023/01/26 11:38:44;;;;;;;86.57;16.27;;;;;;;2.19;100.00;102413.91;5029331;28;20029;-88
2023/01/26 11:41:31;;;;;;;77.07;14.65;;;;;;;2.22;100.00;102417.03;5010542;28;20045;-88
2023/01/26 11:44:22;;;;;;;84.93;16.23;;;;;;;2.33;100.00;102415.09;5013962;28;20497;-88
2023/01/26 11:47:09;;;;;;;76.67;15.87;;;;;;;2.34;100.00;102414.09;5019952;28;20400;-92
2023/01/26 11:49:57;;;;;;;84.28;15.27;;;;;;;2.27;100.00;102395.41;5029595;28;20132;-90
2023/01/26 11:52:53;;;;;;;85.75;16.02;;;;;;;2.41;100.00;102404.50;5030494;28;20514;-89
2023/01/26 11:55:57;;;;;;;82.32;15.10;;;;;;;2.50;100.00;102394.75;5029614;28;20042;-89
2023/01/26 11:58:37;;;;;;;94.03;16.85;;;;;;;2.70;100.00;102392.59;5030686;28;20079;-89
2023/01/26 12:01:13;;;;;;;90.15;15.52;;;;;;;2.79;100.00;102381.00;5031050;28;20041;-89
2023/01/26 12:03:51;;;;;;;88.17;15.83;;;;;;;3.01;100.00;102390.06;5031856;28;20028;-88
2023/01/26 12:06:36;;;;;;;93.17;17.03;;;;;;;3.20;100.00;102388.03;5035040;28;20314;-88
2023/01/26 12:09:21;;;;;;;79.60;15.00;;;;;;;3.39;100.00;102386.81;5045680;28;20082;-89
2023/01/26 12:12:04;;;;;;;90.00;15.63;;;;;;;3.58;100.00;102387.41;5042093;28;20473;-87
2023/01/26 12:15:05;;;;;;;85.90;17.27;;;;;;;3.70;100.00;102385.22;5030641;28;20068;-88
2023/01/26 12:17:36;;;;;;;87.32;15.68;;;;;;;3.82;100.00;102385.66;4983340;28;20045;-89
2023/01/26 12:20:39;;;;;;;84.95;15.40;;;;;;;3.93;100.00;102382.59;5036724;28;20091;-89
2023/01/26 12:25:38;;;;;;;84.80;14.63;;;;;;;3.96;100.00;102355.72;5027042;28;20060;-89
2023/01/26 12:28:22;;;;;;;76.70;14.43;;;;;;;4.16;100.00;102365.88;5045043;28;20319;-89
2023/01/26 12:31:09;;;;;;;68.90;12.93;;;;;;;4.25;100.00;102359.50;5044249;28;20091;-89
2023/01/26 12:42:27;;;;;;;56.13;10.43;;;;;;;4.81;100.00;102351.22;5034670;28;20071;-88
2023/01/26 12:44:59;;;;;;;62.17;10.10;;;;;;;4.84;100.00;102342.06;5058840;28;20033;-88
2023/01/26 12:47:27;;;;;;;53.63;9.00;;;;;;;4.86;100.00;102337.38;5074285;28;20032;-88
2023/01/26 12:50:30;;;;;;;53.53;9.15;;;;;;;4.97;100.00;102328.94;5064329;28;20044;-88
2023/01/26 12:53:08;;;;;;;51.92;8.98;;;;;;;4.95;100.00;102333.63;5069539;28;20012;-88
2023/01/26 12:55:47;;;;;;;40.63;7.18;;;;;;;4.85;100.00;102325.13;5088843;28;20037;-88
2023/01/26 12:58:26;;;;;;;40.88;7.25;;;;;;;4.89;100.00;102338.84;5089534;28;20490;-89